Flugplatz Leck

Für EDXK sind keine METAR/TAF Berichte vorhanden.
Es werden die Flugwettermeldungen vom Flugplatz Westerland Sylt in 41 km Entfernung angezeigt.

Bericht für EDXW

vom 07.03. um 02:20 UTC

Wind 15 kt aus 270°

Sichtweite 10 km oder mehr

bedeckt in 2200 ft

Temperatur 3.0°C

Taupunkt 0.0°C

Luftfeuchtigkeit 81%

Luftdruck 1023 hPa

EDXW 070220Z AUTO 27015KT 9999 // OVC022/// 03/M00 Q1023
Keine Prognose (TAF) verfügbar.
Impressum